<?xml version="1.0" encoding="UTF-8" standalone="no" ?>
<gpx xmlns="http://www.topografix.com/GPX/1/1" xmlns:xsi="http://www.w3.org/2001/XMLSchema-instance" xsi:schemaLocation="http://www.topografix.com/GPX/1/1 http://www.topografix.com/GPX/1/1/gpx.xsd" version="1.1" creator="VisuGPX - https://www.visugpx.com">
  <metadata>
    <name>Randonnée du 03/08/2022 à 11:31</name>
  </metadata>
  <trk>
    <name><![CDATA[Randonnée du 03/08/2022 à 11:31]]></name>
    <trkseg>
      <trkpt lat="46.14496" lon="6.69444">
        <ele>1613.3</ele>
        <time>2022-08-03T11:31:27+02:00</time>
      </trkpt>
      <trkpt lat="46.14508" lon="6.69472">
        <ele>1608.9</ele>
        <time>2022-08-03T11:32:31+02:00</time>
      </trkpt>
      <trkpt lat="46.14635" lon="6.69596">
        <ele>1558.6</ele>
        <time>2022-08-03T11:33:30+02:00</time>
      </trkpt>
      <trkpt lat="46.14613" lon="6.69605">
        <ele>1565.9</ele>
        <time>2022-08-03T11:34:08+02:00</time>
      </trkpt>
      <trkpt lat="46.15179" lon="6.69489">
        <ele>1531.9</ele>
        <time>2022-08-03T11:44:40+02:00</time>
      </trkpt>
      <trkpt lat="46.15203" lon="6.69486">
        <ele>1529.5</ele>
        <time>2022-08-03T11:44:48+02:00</time>
      </trkpt>
      <trkpt lat="46.1532" lon="6.69464">
        <ele>1502.5</ele>
        <time>2022-08-03T11:45:39+02:00</time>
      </trkpt>
      <trkpt lat="46.15353" lon="6.69445">
        <ele>1511.7</ele>
        <time>2022-08-03T11:45:41+02:00</time>
      </trkpt>
      <trkpt lat="46.15378" lon="6.69444">
        <ele>1517.2</ele>
        <time>2022-08-03T11:45:47+02:00</time>
      </trkpt>
      <trkpt lat="46.15402" lon="6.69437">
        <ele>1521.1</ele>
        <time>2022-08-03T11:45:54+02:00</time>
      </trkpt>
      <trkpt lat="46.15426" lon="6.69445">
        <ele>1519.8</ele>
        <time>2022-08-03T11:46:07+02:00</time>
      </trkpt>
      <trkpt lat="46.15449" lon="6.6944">
        <ele>1520.7</ele>
        <time>2022-08-03T11:46:30+02:00</time>
      </trkpt>
      <trkpt lat="46.15472" lon="6.69437">
        <ele>1521.8</ele>
        <time>2022-08-03T11:46:56+02:00</time>
      </trkpt>
      <trkpt lat="46.15495" lon="6.69433">
        <ele>1520.6</ele>
        <time>2022-08-03T11:47:15+02:00</time>
      </trkpt>
      <trkpt lat="46.15519" lon="6.69428">
        <ele>1519.4</ele>
        <time>2022-08-03T11:47:35+02:00</time>
      </trkpt>
      <trkpt lat="46.15541" lon="6.69425">
        <ele>1518.2</ele>
        <time>2022-08-03T11:47:53+02:00</time>
      </trkpt>
      <trkpt lat="46.15563" lon="6.69413">
        <ele>1516.6</ele>
        <time>2022-08-03T11:48:11+02:00</time>
      </trkpt>
      <trkpt lat="46.15585" lon="6.69406">
        <ele>1511.5</ele>
        <time>2022-08-03T11:48:32+02:00</time>
      </trkpt>
      <trkpt lat="46.15608" lon="6.69402">
        <ele>1507</ele>
        <time>2022-08-03T11:49:05+02:00</time>
      </trkpt>
      <trkpt lat="46.15629" lon="6.69389">
        <ele>1509.5</ele>
        <time>2022-08-03T11:49:31+02:00</time>
      </trkpt>
      <trkpt lat="46.15646" lon="6.69359">
        <ele>1523.3</ele>
        <time>2022-08-03T11:50:04+02:00</time>
      </trkpt>
      <trkpt lat="46.15681" lon="6.69364">
        <ele>1514.5</ele>
        <time>2022-08-03T11:50:36+02:00</time>
      </trkpt>
      <trkpt lat="46.15701" lon="6.69348">
        <ele>1514.2</ele>
        <time>2022-08-03T11:50:52+02:00</time>
      </trkpt>
      <trkpt lat="46.15714" lon="6.6932">
        <ele>1508.8</ele>
        <time>2022-08-03T11:51:13+02:00</time>
      </trkpt>
      <trkpt lat="46.15717" lon="6.69287">
        <ele>1510.1</ele>
        <time>2022-08-03T11:51:32+02:00</time>
      </trkpt>
      <trkpt lat="46.15704" lon="6.6926">
        <ele>1514.9</ele>
        <time>2022-08-03T11:51:46+02:00</time>
      </trkpt>
      <trkpt lat="46.1582" lon="6.69171">
        <ele>1501.4</ele>
        <time>2022-08-03T11:52:56+02:00</time>
      </trkpt>
      <trkpt lat="46.1579" lon="6.69213">
        <ele>1501.1</ele>
        <time>2022-08-03T11:52:58+02:00</time>
      </trkpt>
      <trkpt lat="46.15779" lon="6.69243">
        <ele>1500.8</ele>
        <time>2022-08-03T11:53:06+02:00</time>
      </trkpt>
      <trkpt lat="46.15879" lon="6.69251">
        <ele>1495.4</ele>
        <time>2022-08-03T11:53:54+02:00</time>
      </trkpt>
      <trkpt lat="46.15898" lon="6.69269">
        <ele>1494.3</ele>
        <time>2022-08-03T11:54:53+02:00</time>
      </trkpt>
      <trkpt lat="46.15918" lon="6.69286">
        <ele>1494.7</ele>
        <time>2022-08-03T11:55:09+02:00</time>
      </trkpt>
      <trkpt lat="46.15933" lon="6.6931">
        <ele>1498.5</ele>
        <time>2022-08-03T11:55:27+02:00</time>
      </trkpt>
      <trkpt lat="46.15966" lon="6.69346">
        <ele>1502.5</ele>
        <time>2022-08-03T11:56:10+02:00</time>
      </trkpt>
      <trkpt lat="46.15988" lon="6.69354">
        <ele>1502.6</ele>
        <time>2022-08-03T11:56:30+02:00</time>
      </trkpt>
      <trkpt lat="46.16009" lon="6.69368">
        <ele>1504.9</ele>
        <time>2022-08-03T11:56:50+02:00</time>
      </trkpt>
      <trkpt lat="46.1602" lon="6.69396">
        <ele>1506.6</ele>
        <time>2022-08-03T11:57:10+02:00</time>
      </trkpt>
      <trkpt lat="46.16034" lon="6.69423">
        <ele>1510.1</ele>
        <time>2022-08-03T11:57:32+02:00</time>
      </trkpt>
      <trkpt lat="46.16082" lon="6.69441">
        <ele>1531.3</ele>
        <time>2022-08-03T11:58:02+02:00</time>
      </trkpt>
      <trkpt lat="46.1606" lon="6.69456">
        <ele>1520.2</ele>
        <time>2022-08-03T11:58:05+02:00</time>
      </trkpt>
      <trkpt lat="46.16161" lon="6.69475">
        <ele>1544.9</ele>
        <time>2022-08-03T12:00:35+02:00</time>
      </trkpt>
      <trkpt lat="46.16318" lon="6.69421">
        <ele>1530.2</ele>
        <time>2022-08-03T12:03:31+02:00</time>
      </trkpt>
      <trkpt lat="46.16292" lon="6.69425">
        <ele>1541.2</ele>
        <time>2022-08-03T12:03:35+02:00</time>
      </trkpt>
      <trkpt lat="46.16303" lon="6.69397">
        <ele>1543.8</ele>
        <time>2022-08-03T12:03:54+02:00</time>
      </trkpt>
      <trkpt lat="46.16322" lon="6.69377">
        <ele>1540.8</ele>
        <time>2022-08-03T12:04:15+02:00</time>
      </trkpt>
      <trkpt lat="46.16342" lon="6.69361">
        <ele>1541.2</ele>
        <time>2022-08-03T12:04:33+02:00</time>
      </trkpt>
      <trkpt lat="46.16365" lon="6.69353">
        <ele>1537.7</ele>
        <time>2022-08-03T12:04:53+02:00</time>
      </trkpt>
      <trkpt lat="46.16385" lon="6.69336">
        <ele>1538.5</ele>
        <time>2022-08-03T12:05:08+02:00</time>
      </trkpt>
      <trkpt lat="46.16407" lon="6.69325">
        <ele>1536.7</ele>
        <time>2022-08-03T12:05:24+02:00</time>
      </trkpt>
      <trkpt lat="46.16427" lon="6.6931">
        <ele>1536.5</ele>
        <time>2022-08-03T12:05:58+02:00</time>
      </trkpt>
      <trkpt lat="46.16449" lon="6.69306">
        <ele>1536.6</ele>
        <time>2022-08-03T12:06:16+02:00</time>
      </trkpt>
      <trkpt lat="46.16473" lon="6.693">
        <ele>1535.2</ele>
        <time>2022-08-03T12:06:35+02:00</time>
      </trkpt>
      <trkpt lat="46.16495" lon="6.69294">
        <ele>1534.4</ele>
        <time>2022-08-03T12:06:53+02:00</time>
      </trkpt>
      <trkpt lat="46.16517" lon="6.69284">
        <ele>1537.2</ele>
        <time>2022-08-03T12:07:13+02:00</time>
      </trkpt>
      <trkpt lat="46.16539" lon="6.69278">
        <ele>1541.5</ele>
        <time>2022-08-03T12:07:33+02:00</time>
      </trkpt>
      <trkpt lat="46.16562" lon="6.69275">
        <ele>1543.1</ele>
        <time>2022-08-03T12:07:54+02:00</time>
      </trkpt>
      <trkpt lat="46.16685" lon="6.69307">
        <ele>1523.7</ele>
        <time>2022-08-03T12:14:07+02:00</time>
      </trkpt>
      <trkpt lat="46.16724" lon="6.69282">
        <ele>1525.7</ele>
        <time>2022-08-03T12:14:08+02:00</time>
      </trkpt>
      <trkpt lat="46.16747" lon="6.69285">
        <ele>1523.2</ele>
        <time>2022-08-03T12:14:28+02:00</time>
      </trkpt>
      <trkpt lat="46.16767" lon="6.69272">
        <ele>1522.5</ele>
        <time>2022-08-03T12:14:44+02:00</time>
      </trkpt>
      <trkpt lat="46.1679" lon="6.6928">
        <ele>1521.8</ele>
        <time>2022-08-03T12:15:11+02:00</time>
      </trkpt>
      <trkpt lat="46.16807" lon="6.69258">
        <ele>1518.2</ele>
        <time>2022-08-03T12:15:24+02:00</time>
      </trkpt>
      <trkpt lat="46.16816" lon="6.69289">
        <ele>1519.6</ele>
        <time>2022-08-03T12:16:13+02:00</time>
      </trkpt>
      <trkpt lat="46.17026" lon="6.68855">
        <ele>1464.8</ele>
        <time>2022-08-03T12:29:29+02:00</time>
      </trkpt>
      <trkpt lat="46.1702" lon="6.68823">
        <ele>1466</ele>
        <time>2022-08-03T12:29:40+02:00</time>
      </trkpt>
      <trkpt lat="46.17015" lon="6.68788">
        <ele>1460.5</ele>
        <time>2022-08-03T12:29:50+02:00</time>
      </trkpt>
      <trkpt lat="46.17002" lon="6.68759">
        <ele>1458.2</ele>
        <time>2022-08-03T12:30:03+02:00</time>
      </trkpt>
      <trkpt lat="46.16986" lon="6.68733">
        <ele>1456.5</ele>
        <time>2022-08-03T12:30:13+02:00</time>
      </trkpt>
      <trkpt lat="46.1697" lon="6.68711">
        <ele>1455.7</ele>
        <time>2022-08-03T12:30:31+02:00</time>
      </trkpt>
      <trkpt lat="46.16485" lon="6.68129">
        <ele>1338.8</ele>
        <time>2022-08-03T12:44:53+02:00</time>
      </trkpt>
      <trkpt lat="46.16506" lon="6.68143">
        <ele>1344</ele>
        <time>2022-08-03T12:45:18+02:00</time>
      </trkpt>
      <trkpt lat="46.16237" lon="6.68123">
        <ele>1316.3</ele>
        <time>2022-08-03T12:53:15+02:00</time>
      </trkpt>
      <trkpt lat="46.16224" lon="6.68096">
        <ele>1314.9</ele>
        <time>2022-08-03T12:53:46+02:00</time>
      </trkpt>
      <trkpt lat="46.15957" lon="6.68265">
        <ele>1345</ele>
        <time>2022-08-03T13:03:37+02:00</time>
      </trkpt>
      <trkpt lat="46.15473" lon="6.67615">
        <ele>1265.8</ele>
        <time>2022-08-03T13:18:26+02:00</time>
      </trkpt>
      <trkpt lat="46.1548" lon="6.67583">
        <ele>1260</ele>
        <time>2022-08-03T13:19:00+02:00</time>
      </trkpt>
      <trkpt lat="46.15478" lon="6.6755">
        <ele>1256.2</ele>
        <time>2022-08-03T13:19:28+02:00</time>
      </trkpt>
      <trkpt lat="46.15467" lon="6.67521">
        <ele>1253</ele>
        <time>2022-08-03T13:19:55+02:00</time>
      </trkpt>
      <trkpt lat="46.15446" lon="6.6751">
        <ele>1251.7</ele>
        <time>2022-08-03T13:20:22+02:00</time>
      </trkpt>
      <trkpt lat="46.15318" lon="6.6736">
        <ele>1244.9</ele>
        <time>2022-08-03T14:01:10+02:00</time>
      </trkpt>
      <trkpt lat="46.15334" lon="6.67337">
        <ele>1243.2</ele>
        <time>2022-08-03T14:01:35+02:00</time>
      </trkpt>
      <trkpt lat="46.15338" lon="6.67304">
        <ele>1239.8</ele>
        <time>2022-08-03T14:02:15+02:00</time>
      </trkpt>
      <trkpt lat="46.1533" lon="6.67274">
        <ele>1235.7</ele>
        <time>2022-08-03T14:02:46+02:00</time>
      </trkpt>
      <trkpt lat="46.15209" lon="6.6703">
        <ele>1228</ele>
        <time>2022-08-03T14:08:07+02:00</time>
      </trkpt>
      <trkpt lat="46.15232" lon="6.67034">
        <ele>1228.1</ele>
        <time>2022-08-03T14:09:31+02:00</time>
      </trkpt>
      <trkpt lat="46.15254" lon="6.67021">
        <ele>1227.6</ele>
        <time>2022-08-03T14:09:51+02:00</time>
      </trkpt>
      <trkpt lat="46.15277" lon="6.67011">
        <ele>1227.2</ele>
        <time>2022-08-03T14:10:11+02:00</time>
      </trkpt>
      <trkpt lat="46.15298" lon="6.66997">
        <ele>1225.7</ele>
        <time>2022-08-03T14:10:30+02:00</time>
      </trkpt>
      <trkpt lat="46.15317" lon="6.66978">
        <ele>1223.3</ele>
        <time>2022-08-03T14:10:52+02:00</time>
      </trkpt>
      <trkpt lat="46.15338" lon="6.66966">
        <ele>1220.7</ele>
        <time>2022-08-03T14:11:14+02:00</time>
      </trkpt>
      <trkpt lat="46.15352" lon="6.6694">
        <ele>1214.7</ele>
        <time>2022-08-03T14:11:41+02:00</time>
      </trkpt>
      <trkpt lat="46.15374" lon="6.6693">
        <ele>1211.8</ele>
        <time>2022-08-03T14:12:03+02:00</time>
      </trkpt>
      <trkpt lat="46.15396" lon="6.66924">
        <ele>1210.4</ele>
        <time>2022-08-03T14:12:22+02:00</time>
      </trkpt>
      <trkpt lat="46.15419" lon="6.66918">
        <ele>1207.9</ele>
        <time>2022-08-03T14:12:38+02:00</time>
      </trkpt>
      <trkpt lat="46.15441" lon="6.66921">
        <ele>1206.3</ele>
        <time>2022-08-03T14:12:56+02:00</time>
      </trkpt>
      <trkpt lat="46.15464" lon="6.66915">
        <ele>1201.8</ele>
        <time>2022-08-03T14:13:16+02:00</time>
      </trkpt>
      <trkpt lat="46.15487" lon="6.66915">
        <ele>1198.6</ele>
        <time>2022-08-03T14:13:34+02:00</time>
      </trkpt>
      <trkpt lat="46.1551" lon="6.66908">
        <ele>1194.2</ele>
        <time>2022-08-03T14:13:54+02:00</time>
      </trkpt>
      <trkpt lat="46.15532" lon="6.66902">
        <ele>1190.4</ele>
        <time>2022-08-03T14:14:17+02:00</time>
      </trkpt>
      <trkpt lat="46.15546" lon="6.66877">
        <ele>1186.5</ele>
        <time>2022-08-03T14:14:36+02:00</time>
      </trkpt>
      <trkpt lat="46.15561" lon="6.66852">
        <ele>1184.3</ele>
        <time>2022-08-03T14:14:56+02:00</time>
      </trkpt>
      <trkpt lat="46.15578" lon="6.6683">
        <ele>1182.1</ele>
        <time>2022-08-03T14:15:18+02:00</time>
      </trkpt>
      <trkpt lat="46.15595" lon="6.66806">
        <ele>1177.9</ele>
        <time>2022-08-03T14:17:19+02:00</time>
      </trkpt>
      <trkpt lat="46.15614" lon="6.66786">
        <ele>1173.2</ele>
        <time>2022-08-03T14:17:40+02:00</time>
      </trkpt>
      <trkpt lat="46.15628" lon="6.66759">
        <ele>1168.9</ele>
        <time>2022-08-03T14:18:00+02:00</time>
      </trkpt>
      <trkpt lat="46.15635" lon="6.66726">
        <ele>1165.7</ele>
        <time>2022-08-03T14:18:29+02:00</time>
      </trkpt>
      <trkpt lat="46.15618" lon="6.66703">
        <ele>1166.6</ele>
        <time>2022-08-03T14:18:45+02:00</time>
      </trkpt>
      <trkpt lat="46.15603" lon="6.66678">
        <ele>1166.7</ele>
        <time>2022-08-03T14:19:04+02:00</time>
      </trkpt>
      <trkpt lat="46.15583" lon="6.66661">
        <ele>1167.5</ele>
        <time>2022-08-03T14:19:21+02:00</time>
      </trkpt>
      <trkpt lat="46.15563" lon="6.66644">
        <ele>1167</ele>
        <time>2022-08-03T14:19:40+02:00</time>
      </trkpt>
      <trkpt lat="46.15546" lon="6.66622">
        <ele>1165.9</ele>
        <time>2022-08-03T14:19:58+02:00</time>
      </trkpt>
      <trkpt lat="46.1553" lon="6.66599">
        <ele>1165.4</ele>
        <time>2022-08-03T14:20:18+02:00</time>
      </trkpt>
      <trkpt lat="46.15513" lon="6.66577">
        <ele>1165.8</ele>
        <time>2022-08-03T14:20:36+02:00</time>
      </trkpt>
      <trkpt lat="46.15501" lon="6.66548">
        <ele>1165.7</ele>
        <time>2022-08-03T14:20:53+02:00</time>
      </trkpt>
      <trkpt lat="46.15491" lon="6.66517">
        <ele>1165.3</ele>
        <time>2022-08-03T14:21:11+02:00</time>
      </trkpt>
      <trkpt lat="46.15478" lon="6.66489">
        <ele>1165.1</ele>
        <time>2022-08-03T14:21:31+02:00</time>
      </trkpt>
      <trkpt lat="46.15465" lon="6.66462">
        <ele>1164.9</ele>
        <time>2022-08-03T14:21:48+02:00</time>
      </trkpt>
      <trkpt lat="46.1545" lon="6.66436">
        <ele>1164</ele>
        <time>2022-08-03T14:22:05+02:00</time>
      </trkpt>
      <trkpt lat="46.15433" lon="6.66415">
        <ele>1163.1</ele>
        <time>2022-08-03T14:22:25+02:00</time>
      </trkpt>
      <trkpt lat="46.15419" lon="6.66389">
        <ele>1159</ele>
        <time>2022-08-03T14:22:44+02:00</time>
      </trkpt>
    </trkseg>
  </trk>
</gpx>